Time;durP1;ratioP1;P1;durP2;ratioP2;P2;SDS_P1;SDS_P2;PMS_P1;PMS_P2;Temp;Humidity;BMP_temperature;BMP_pressure;BME280_temperature;BME280_humidity;BME280_pressure;Samples;Min_cycle;Max_cycle;Signal;HPM_P1;HPM_P2
2021/04/15 00:00:17;;;;;;;8.43;6.00;;;1.60;99.90;;;;;;4906990;29;20234;-85
2021/04/15 00:02:43;;;;;;;8.63;6.50;;;1.70;99.90;;;;;;4905437;29;20217;-84
2021/04/15 00:05:11;;;;;;;7.85;6.57;;;1.70;99.90;;;;;;4905647;29;20548;-84
2021/04/15 00:07:38;;;;;;;10.60;7.78;;;1.60;99.90;;;;;;4900311;29;20207;-84
2021/04/15 00:10:07;;;;;;;8.00;6.57;;;1.60;99.90;;;;;;4899617;29;20205;-85
2021/04/15 00:12:34;;;;;;;8.90;7.07;;;1.50;99.90;;;;;;4899243;29;20650;-84
2021/04/15 00:15:00;;;;;;;8.50;7.60;;;1.40;99.90;;;;;;4899024;29;20552;-84
2021/04/15 00:17:26;;;;;;;9.23;8.32;;;1.40;99.90;;;;;;4899230;29;20197;-85
2021/04/15 00:19:52;;;;;;;12.52;8.63;;;1.30;99.90;;;;;;4899236;29;20221;-84
2021/04/15 00:22:19;;;;;;;8.82;7.93;;;1.30;99.90;;;;;;4899101;29;20192;-84
2021/04/15 00:24:45;;;;;;;11.90;8.40;;;1.20;99.90;;;;;;4899165;29;20197;-84
2021/04/15 00:27:11;;;;;;;9.73;7.97;;;1.10;99.90;;;;;;4898626;29;20200;-85
2021/04/15 00:29:38;;;;;;;12.63;8.27;;;1.00;99.90;;;;;;4899045;29;20213;-84
2021/04/15 00:32:06;;;;;;;10.85;8.75;;;0.90;99.90;;;;;;4898815;29;20196;-84
2021/04/15 00:34:32;;;;;;;11.32;9.13;;;0.80;99.90;;;;;;4898623;29;20276;-83
2021/04/15 00:36:58;;;;;;;9.40;8.35;;;0.80;99.90;;;;;;4899023;29;20638;-83
2021/04/15 00:39:25;;;;;;;9.60;7.60;;;0.70;99.90;;;;;;4898912;29;20214;-83
2021/04/15 00:41:51;;;;;;;11.60;8.20;;;0.70;99.90;;;;;;4898593;29;20191;-83
2021/04/15 00:44:17;;;;;;;10.30;9.18;;;0.70;99.90;;;;;;4898791;29;20202;-83
2021/04/15 00:46:57;;;;;;;10.75;8.57;;;0.60;99.90;;;;;;4898311;29;20188;-83
2021/04/15 00:49:29;;;;;;;11.23;9.38;;;0.60;99.90;;;;;;4898770;29;20276;-83
2021/04/15 00:51:58;;;;;;;11.55;9.68;;;0.60;99.90;;;;;;4898857;29;20203;-85
2021/04/15 00:54:39;;;;;;;10.73;8.88;;;0.50;99.90;;;;;;4899010;29;20227;-83
2021/04/15 00:57:11;;;;;;;10.38;8.65;;;0.60;99.90;;;;;;4898519;29;20203;-83
2021/04/15 00:59:37;;;;;;;12.90;9.20;;;0.60;99.90;;;;;;4898592;29;20680;-83
2021/04/15 01:02:05;;;;;;;12.50;8.88;;;0.60;99.90;;;;;;4898643;29;20267;-83
2021/04/15 01:04:31;;;;;;;12.10;8.82;;;0.50;99.90;;;;;;4880188;29;20205;-83
2021/04/15 01:06:57;;;;;;;11.90;9.25;;;0.50;99.90;;;;;;4891573;29;20219;-84
2021/04/15 01:09:24;;;;;;;12.10;9.27;;;0.40;99.90;;;;;;4898520;29;20194;-84
2021/04/15 01:12:02;;;;;;;15.77;10.40;;;0.40;99.90;;;;;;4897970;29;20198;-84
2021/04/15 01:14:41;;;;;;;12.55;10.13;;;0.30;99.90;;;;;;4899023;29;20278;-83
2021/04/15 01:17:14;;;;;;;14.30;11.20;;;0.40;99.90;;;;;;4897899;29;20698;-83
2021/04/15 01:20:09;;;;;;;11.82;9.43;;;0.50;99.90;;;;;;4898101;29;20212;-83
2021/04/15 01:22:48;;;;;;;12.48;9.10;;;0.60;99.90;;;;;;4895502;29;20243;-83
2021/04/15 01:25:27;;;;;;;12.02;10.00;;;0.60;99.90;;;;;;4898164;29;20257;-84
2021/04/15 01:27:57;;;;;;;13.15;9.68;;;0.70;99.90;;;;;;4898169;29;20209;-84
2021/04/15 01:30:29;;;;;;;12.82;11.13;;;0.70;99.90;;;;;;4870545;29;20238;-84
2021/04/15 01:33:10;;;;;;;12.25;10.93;;;0.80;99.90;;;;;;4879734;29;20395;-84
2021/04/15 01:35:43;;;;;;;13.75;12.32;;;0.80;99.90;;;;;;4894245;29;20203;-84
2021/04/15 01:38:14;;;;;;;16.77;12.88;;;0.90;99.90;;;;;;4898045;29;20200;-83
2021/04/15 01:40:43;;;;;;;14.75;12.32;;;1.00;99.90;;;;;;4897884;29;20259;-84
2021/04/15 01:43:15;;;;;;;13.90;12.23;;;1.00;99.90;;;;;;4898016;29;20215;-84
2021/04/15 01:45:44;;;;;;;14.85;11.95;;;1.10;99.90;;;;;;4898335;29;20551;-84
2021/04/15 01:48:14;;;;;;;11.70;10.50;;;1.10;99.90;;;;;;4897745;29;20290;-83
2021/04/15 01:50:44;;;;;;;11.98;10.57;;;1.20;99.90;;;;;;4898644;29;20210;-84
2021/04/15 01:53:15;;;;;;;13.57;11.20;;;1.10;99.90;;;;;;4898310;29;20241;-84
2021/04/15 01:55:44;;;;;;;13.82;10.82;;;1.20;99.90;;;;;;4898618;29;20209;-84
2021/04/15 01:58:17;;;;;;;15.55;11.15;;;1.20;99.90;;;;;;4919029;29;20214;-84
2021/04/15 02:00:48;;;;;;;14.57;13.20;;;1.20;99.90;;;;;;4918564;29;20221;-84
2021/04/15 02:03:19;;;;;;;15.23;12.73;;;1.30;99.90;;;;;;4901789;29;20197;-84
2021/04/15 02:05:49;;;;;;;17.23;14.20;;;1.40;99.90;;;;;;4902872;29;20217;-84
2021/04/15 02:08:17;;;;;;;22.55;13.15;;;1.50;99.90;;;;;;4902251;29;20186;-84
2021/04/15 02:10:48;;;;;;;14.98;13.40;;;1.60;99.90;;;;;;4904534;29;20264;-84
2021/04/15 02:13:17;;;;;;;17.35;13.77;;;1.70;99.90;;;;;;4923909;29;20258;-84
2021/04/15 02:15:47;;;;;;;15.38;13.70;;;1.70;99.90;;;;;;4924259;29;20216;-84
2021/04/15 02:18:20;;;;;;;14.77;11.75;;;1.80;99.90;;;;;;4913088;29;20240;-84
2021/04/15 02:20:50;;;;;;;16.20;12.85;;;1.90;99.90;;;;;;4903690;29;20234;-84
2021/04/15 02:23:24;;;;;;;14.30;11.82;;;1.90;99.90;;;;;;4902481;29;20195;-84
2021/04/15 02:25:56;;;;;;;12.77;11.23;;;1.90;99.90;;;;;;4902229;29;20278;-84
2021/04/15 02:28:27;;;;;;;13.13;11.15;;;1.90;99.90;;;;;;4901087;29;20198;-84
2021/04/15 02:31:01;;;;;;;11.60;10.18;;;1.90;99.90;;;;;;4900722;29;20673;-83
2021/04/15 02:33:35;;;;;;;11.88;10.65;;;1.80;99.90;;;;;;4901081;29;20559;-84
2021/04/15 02:36:04;;;;;;;14.63;10.93;;;1.70;99.90;;;;;;4900876;29;20199;-84
2021/04/15 02:38:34;;;;;;;13.82;11.23;;;1.60;99.90;;;;;;4900573;29;20194;-84
2021/04/15 02:41:02;;;;;;;13.50;10.98;;;1.50;99.90;;;;;;4900209;29;20215;-84
2021/04/15 02:43:36;;;;;;;15.85;11.90;;;1.40;99.90;;;;;;4900768;29;20567;-83
2021/04/15 02:46:08;;;;;;;13.43;10.98;;;1.30;99.90;;;;;;4900230;29;20280;-84
2021/04/15 02:48:37;;;;;;;13.35;12.00;;;1.10;99.90;;;;;;4901166;29;20198;-84
2021/04/15 02:51:07;;;;;;;12.48;10.55;;;1.00;99.90;;;;;;4901051;29;20198;-83
2021/04/15 02:53:38;;;;;;;14.23;11.27;;;0.90;99.90;;;;;;4901264;29;20207;-83
2021/04/15 02:56:08;;;;;;;13.20;11.68;;;0.80;99.90;;;;;;4901664;29;20200;-84
2021/04/15 02:58:39;;;;;;;15.27;12.70;;;0.70;99.90;;;;;;4900473;29;20260;-84
2021/04/15 03:01:09;;;;;;;16.15;13.02;;;0.70;99.90;;;;;;4904030;29;20228;-83
2021/04/15 03:03:37;;;;;;;16.27;13.35;;;0.60;99.90;;;;;;4900621;29;20200;-85
2021/04/15 03:06:09;;;;;;;17.17;13.70;;;0.50;99.90;;;;;;4919996;29;20230;-85
2021/04/15 03:08:38;;;;;;;15.05;13.27;;;0.50;99.90;;;;;;4921475;29;20201;-83
2021/04/15 03:11:08;;;;;;;15.40;13.00;;;0.50;99.90;;;;;;4911399;29;20699;-83
2021/04/15 03:13:40;;;;;;;15.57;12.55;;;0.40;99.90;;;;;;4902857;29;20201;-85
2021/04/15 03:16:07;;;;;;;17.38;15.07;;;0.40;99.90;;;;;;4882392;29;20261;-85
2021/04/15 03:18:41;;;;;;;15.70;13.57;;;0.30;99.90;;;;;;4898464;29;20194;-83
2021/04/15 03:21:15;;;;;;;14.93;12.23;;;0.20;99.90;;;;;;4900820;29;20231;-84
2021/04/15 03:23:47;;;;;;;14.55;13.05;;;0.10;99.90;;;;;;4900424;29;20199;-85
2021/04/15 03:26:27;;;;;;;13.70;12.18;;;0.00;99.90;;;;;;4884805;29;20185;-85
2021/04/15 03:29:03;;;;;;;15.85;13.95;;;0.00;99.90;;;;;;4900096;29;20685;-85
2021/04/15 03:31:42;;;;;;;16.63;14.25;;;-0.10;99.90;;;;;;4900848;29;20198;-84
2021/04/15 03:34:15;;;;;;;16.80;14.27;;;-0.20;99.90;;;;;;4885759;29;20187;-85
2021/04/15 03:36:46;;;;;;;17.38;15.02;;;-0.30;99.90;;;;;;4900413;29;20281;-84
2021/04/15 03:39:18;;;;;;;15.35;12.35;;;-0.30;99.90;;;;;;4899999;29;20215;-84
2021/04/15 03:41:46;;;;;;;13.75;12.35;;;-0.40;99.90;;;;;;4899915;29;20289;-84
2021/04/15 03:44:19;;;;;;;14.40;12.75;;;-0.40;99.90;;;;;;4899920;29;20198;-84
2021/04/15 03:46:51;;;;;;;18.23;14.18;;;-0.50;99.90;;;;;;4899831;29;20264;-85
2021/04/15 03:49:21;;;;;;;16.25;14.55;;;-0.60;99.90;;;;;;4899995;29;20201;-83
2021/04/15 03:51:51;;;;;;;17.95;15.00;;;-0.60;99.90;;;;;;4899525;29;20203;-83
2021/04/15 03:54:21;;;;;;;21.52;14.90;;;-0.60;99.90;;;;;;4899623;29;20554;-84
2021/04/15 03:56:51;;;;;;;22.17;15.25;;;-0.60;99.90;;;;;;4899391;29;20272;-83
2021/04/15 03:59:22;;;;;;;21.05;15.23;;;-0.60;99.90;;;;;;4898897;29;20221;-84
2021/04/15 04:01:52;;;;;;;16.98;15.25;;;-0.70;99.90;;;;;;4899332;29;20195;-84
2021/04/15 04:04:27;;;;;;;19.35;14.85;;;-0.70;99.90;;;;;;4899866;29;20192;-83
2021/04/15 04:06:55;;;;;;;17.80;14.95;;;-0.70;99.90;;;;;;4899730;29;20204;-83
2021/04/15 04:09:25;;;;;;;19.05;16.90;;;-0.70;99.90;;;;;;4899573;29;20647;-84
2021/04/15 04:11:53;;;;;;;17.27;14.65;;;-0.80;99.90;;;;;;4898804;29;20217;-84
2021/04/15 04:14:25;;;;;;;16.63;14.60;;;-0.80;99.90;;;;;;4899449;29;20193;-84
2021/04/15 04:16:58;;;;;;;16.42;13.52;;;-0.90;99.90;;;;;;4899192;29;20225;-84
2021/04/15 04:19:28;;;;;;;17.75;15.85;;;-1.00;99.90;;;;;;4899473;29;20692;-84
2021/04/15 04:22:03;;;;;;;19.20;15.60;;;-1.10;99.90;;;;;;4897879;29;20653;-84
2021/04/15 04:24:36;;;;;;;22.30;15.10;;;-1.10;99.90;;;;;;4899300;29;20202;-84
2021/04/15 04:27:07;;;;;;;17.83;13.40;;;-1.10;99.90;;;;;;4898863;29;20221;-84
2021/04/15 04:29:39;;;;;;;20.50;16.10;;;-1.20;99.90;;;;;;4899218;29;20539;-84
2021/04/15 04:32:12;;;;;;;15.88;14.25;;;-1.20;99.90;;;;;;4898369;29;20230;-84
2021/04/15 04:34:40;;;;;;;19.45;16.10;;;-1.20;99.90;;;;;;4899084;29;20204;-84
2021/04/15 04:37:10;;;;;;;18.67;15.85;;;-1.20;99.90;;;;;;4898885;29;20204;-84
2021/04/15 04:39:39;;;;;;;27.70;18.13;;;-1.20;99.90;;;;;;4898655;29;20217;-84
2021/04/15 04:42:16;;;;;;;21.75;17.83;;;-1.00;99.90;;;;;;4898917;29;20257;-84
2021/04/15 04:44:46;;;;;;;21.40;17.30;;;-0.90;99.90;;;;;;4898641;29;20253;-84
2021/04/15 04:47:22;;;;;;;23.67;16.95;;;-0.80;99.90;;;;;;4900806;29;20198;-83
2021/04/15 04:49:55;;;;;;;24.35;18.90;;;-0.80;99.90;;;;;;4904571;29;20209;-83
2021/04/15 04:52:26;;;;;;;23.40;17.55;;;-0.80;99.90;;;;;;4905867;29;20201;-83
2021/04/15 04:54:54;;;;;;;18.63;16.75;;;-0.80;99.90;;;;;;4905982;29;20574;-84
2021/04/15 04:57:27;;;;;;;23.70;19.10;;;-0.80;99.90;;;;;;4898636;29;20197;-82
2021/04/15 04:59:59;;;;;;;20.80;17.42;;;-0.80;99.90;;;;;;4898039;29;20281;-83
2021/04/15 05:02:26;;;;;;;23.13;20.67;;;-0.80;99.90;;;;;;4898937;29;20536;-82
2021/04/15 05:05:00;;;;;;;21.45;18.17;;;-0.80;99.90;;;;;;4898510;29;20202;-83
2021/04/15 05:07:29;;;;;;;19.70;17.58;;;-0.80;99.90;;;;;;4898003;29;20193;-83
2021/04/15 05:09:56;;;;;;;24.70;19.55;;;-0.70;99.90;;;;;;4898381;29;20194;-83
2021/04/15 05:12:27;;;;;;;22.45;17.88;;;-0.70;99.90;;;;;;4898100;29;20575;-83
2021/04/15 05:14:55;;;;;;;23.88;18.20;;;-0.80;99.90;;;;;;4898339;29;20555;-83
2021/04/15 05:17:25;;;;;;;18.92;15.52;;;-0.70;99.90;;;;;;4897912;29;20186;-85
2021/04/15 05:19:54;;;;;;;21.52;16.55;;;-0.70;99.90;;;;;;4898404;29;20213;-85
2021/04/15 05:22:26;;;;;;;20.48;16.35;;;-0.70;99.90;;;;;;4898017;29;20186;-85
2021/04/15 05:24:57;;;;;;;20.55;18.38;;;-0.70;99.90;;;;;;4898183;29;20245;-85
2021/04/15 05:27:26;;;;;;;20.33;17.50;;;-0.60;99.90;;;;;;4898607;29;20189;-89
2021/04/15 05:30:15;;;;;;;25.42;19.23;;;-0.60;99.90;;;;;;4898781;29;20264;-88
2021/04/15 05:32:43;;;;;;;22.42;18.17;;;-0.50;99.90;;;;;;4897964;29;20193;-89
2021/04/15 05:35:15;;;;;;;22.70;19.95;;;-0.50;99.90;;;;;;4898843;29;20197;-88
2021/04/15 05:37:41;;;;;;;25.30;22.42;;;-0.40;99.90;;;;;;4899616;29;20317;-89
2021/04/15 05:40:09;;;;;;;26.45;22.27;;;-0.40;99.90;;;;;;4897857;29;20310;-90
2021/04/15 05:42:41;;;;;;;29.00;21.73;;;-0.30;99.90;;;;;;4899485;29;20206;-90
2021/04/15 05:45:12;;;;;;;37.15;29.52;;;-0.20;99.90;;;;;;4905547;29;20664;-90
2021/04/15 05:47:51;;;;;;;31.52;25.05;;;-0.20;99.90;;;;;;4904935;29;20270;-90
2021/04/15 05:50:23;;;;;;;31.60;25.52;;;-0.10;99.90;;;;;;4899372;29;20338;-90
2021/04/15 05:52:55;;;;;;;29.58;24.90;;;0.00;99.90;;;;;;4899758;29;20681;-91
2021/04/15 05:55:27;;;;;;;29.52;23.42;;;0.10;99.90;;;;;;4901113;29;20196;-84
2021/04/15 05:58:00;;;;;;;25.00;21.52;;;0.20;99.90;;;;;;4893461;29;20196;-82
2021/04/15 06:00:33;;;;;;;38.50;21.00;;;0.30;99.90;;;;;;4898017;29;20217;-82
2021/04/15 06:03:08;;;;;;;21.60;18.48;;;0.50;99.90;;;;;;4901136;29;20195;-82
2021/04/15 06:05:40;;;;;;;27.30;20.27;;;0.60;99.90;;;;;;4906586;29;20198;-81
2021/04/15 06:08:09;;;;;;;24.67;19.30;;;0.70;99.90;;;;;;4908036;29;20252;-82
2021/04/15 06:10:38;;;;;;;23.73;19.63;;;0.80;99.90;;;;;;4908516;29;20188;-87
2021/04/15 06:13:07;;;;;;;23.92;17.95;;;0.90;99.90;;;;;;4908258;29;20191;-86
2021/04/15 06:15:38;;;;;;;24.20;19.52;;;1.10;99.90;;;;;;4912618;29;20199;-85
2021/04/15 06:18:12;;;;;;;22.17;18.48;;;1.10;99.90;;;;;;4904829;29;20222;-86
2021/04/15 06:20:42;;;;;;;23.73;21.30;;;1.20;99.90;;;;;;4902983;29;20276;-87
2021/04/15 06:23:16;;;;;;;31.30;21.10;;;1.30;99.90;;;;;;4905722;29;20229;-85
2021/04/15 06:25:46;;;;;;;28.80;22.92;;;1.40;99.90;;;;;;4884320;29;20224;-85
2021/04/15 06:28:19;;;;;;;26.85;20.50;;;1.40;99.90;;;;;;4904213;29;20204;-86
2021/04/15 06:30:54;;;;;;;24.50;21.48;;;1.50;99.90;;;;;;4906732;29;20205;-87
2021/04/15 06:33:21;;;;;;;26.20;21.60;;;1.60;99.90;;;;;;4902747;29;20204;-86
2021/04/15 06:35:53;;;;;;;30.30;22.33;;;1.70;99.90;;;;;;4898883;29;20193;-87
2021/04/15 06:38:24;;;;;;;30.42;22.00;;;1.70;99.90;;;;;;4893097;29;20199;-86
2021/04/15 06:41:10;;;;;;;31.73;23.10;;;1.80;99.90;;;;;;4881575;29;20238;-85
2021/04/15 06:43:57;;;;;;;24.50;21.15;;;1.90;99.90;;;;;;4877451;29;20198;-86
2021/04/15 06:46:37;;;;;;;32.63;23.73;;;1.90;99.90;;;;;;4871543;29;20202;-87
2021/04/15 06:49:35;;;;;;;31.75;24.88;;;2.00;99.90;;;;;;4889815;29;20267;-86
2021/04/15 06:52:11;;;;;;;30.75;23.42;;;2.10;99.90;;;;;;4885997;29;20197;-86
2021/04/15 06:54:45;;;;;;;34.67;24.50;;;2.20;99.90;;;;;;4903259;29;20216;-86
2021/04/15 06:57:23;;;;;;;31.65;24.02;;;2.30;99.90;;;;;;4902245;29;20208;-86
2021/04/15 07:00:06;;;;;;;36.25;25.50;;;2.40;99.90;;;;;;4903077;29;20750;-86
2021/04/15 07:02:48;;;;;;;28.95;22.02;;;2.50;99.90;;;;;;4902527;29;20198;-86
2021/04/15 07:05:20;;;;;;;30.33;23.52;;;2.50;99.90;;;;;;4902496;29;20206;-87
2021/04/15 07:07:53;;;;;;;29.90;20.67;;;2.60;99.90;;;;;;4902075;29;20210;-85
2021/04/15 07:10:37;;;;;;;23.67;16.38;;;2.70;99.90;;;;;;4901859;29;20720;-86
2021/04/15 07:13:32;;;;;;;25.73;16.48;;;2.90;99.90;;;;;;4901389;29;20207;-87
2021/04/15 07:16:46;;;;;;;21.83;15.60;;;3.00;99.90;;;;;;4901163;29;20198;-86
2021/04/15 07:19:43;;;;;;;20.33;16.02;;;3.10;99.90;;;;;;4884243;29;20197;-86
2021/04/15 07:22:44;;;;;;;18.30;15.85;;;3.20;99.90;;;;;;4901261;29;20200;-86
2021/04/15 07:25:22;;;;;;;17.20;14.48;;;3.30;99.90;;;;;;4901954;29;20206;-86
2021/04/15 07:28:13;;;;;;;23.67;15.45;;;3.40;99.90;;;;;;4904260;29;20196;-86
2021/04/15 07:31:17;;;;;;;22.15;15.55;;;3.50;99.90;;;;;;4894152;29;20576;-87
2021/04/15 07:34:14;;;;;;;34.63;14.98;;;3.60;99.90;;;;;;4882295;29;20207;-86
2021/04/15 07:37:18;;;;;;;16.23;11.48;;;3.70;99.90;;;;;;4888312;29;20195;-88
2021/04/15 07:40:06;;;;;;;14.43;11.90;;;3.80;99.90;;;;;;4891336;29;20254;-88
2021/04/15 07:42:49;;;;;;;12.23;8.68;;;4.00;99.90;;;;;;4899809;29;20182;-83
2021/04/15 07:45:21;;;;;;;11.70;7.60;;;4.10;99.90;;;;;;4899863;29;20618;-83
2021/04/15 07:48:24;;;;;;;15.15;9.15;;;4.20;99.90;;;;;;4900069;29;20193;-83
2021/04/15 07:51:17;;;;;;;14.18;10.45;;;4.30;99.90;;;;;;4870308;29;20197;-83
2021/04/15 07:53:57;;;;;;;11.45;8.50;;;4.50;99.90;;;;;;4899145;29;20650;-84
2021/04/15 07:56:48;;;;;;;11.38;8.43;;;4.60;99.90;;;;;;4897877;29;20185;-84
2021/04/15 07:59:35;;;;;;;10.68;8.90;;;4.80;99.90;;;;;;4897462;29;20221;-84
2021/04/15 08:02:33;;;;;;;15.20;8.82;;;4.90;99.90;;;;;;4900089;29;20197;-84
2021/04/15 08:05:41;;;;;;;14.23;8.85;;;5.00;99.90;;;;;;4899820;29;20638;-84
2021/04/15 08:08:35;;;;;;;9.98;7.72;;;5.20;99.90;;;;;;4886523;29;20227;-84
2021/04/15 08:11:19;;;;;;;11.70;9.00;;;5.50;99.90;;;;;;4899822;29;20210;-84
2021/04/15 08:14:05;;;;;;;8.70;7.07;;;5.50;99.90;;;;;;4904698;29;20188;-86
2021/04/15 08:16:40;;;;;;;10.02;6.20;;;5.70;99.90;;;;;;4900902;29;20193;-85
2021/04/15 08:19:47;;;;;;;8.15;6.22;;;5.80;99.90;;;;;;4883317;29;20674;-84
2021/04/15 08:22:28;;;;;;;9.93;7.00;;;5.90;99.90;;;;;;4907886;29;20621;-84
2021/04/15 08:25:06;;;;;;;10.25;5.25;;;6.20;99.90;;;;;;4921257;29;20185;-85
2021/04/15 08:28:18;;;;;;;9.10;5.50;;;6.50;99.90;;;;;;4920947;29;20192;-83
2021/04/15 08:30:59;;;;;;;6.55;4.60;;;6.80;99.90;;;;;;4891554;29;20224;-84
2021/04/15 08:33:42;;;;;;;18.15;6.65;;;7.10;99.90;;;;;;4896092;29;20196;-85
2021/04/15 08:36:21;;;;;;;7.03;4.40;;;7.10;99.90;;;;;;4898899;29;20197;-84
2021/04/15 08:39:07;;;;;;;8.00;6.05;;;7.40;99.90;;;;;;4899517;29;20200;-84
2021/04/15 08:41:45;;;;;;;5.45;3.67;;;7.40;99.90;;;;;;4899138;29;20217;-84
2021/04/15 08:44:38;;;;;;;5.20;3.88;;;7.50;99.90;;;;;;4899974;29;20197;-84
2021/04/15 08:47:24;;;;;;;8.55;2.78;;;7.70;99.90;;;;;;4899417;29;20281;-83
2021/04/15 08:50:00;;;;;;;11.68;4.68;;;8.00;99.90;;;;;;4899566;29;20194;-84
2021/04/15 08:52:39;;;;;;;5.82;3.20;;;8.10;99.90;;;;;;4899489;29;20185;-85
2021/04/15 08:55:23;;;;;;;6.60;4.57;;;8.30;99.90;;;;;;4886559;29;20197;-84
2021/04/15 08:58:22;;;;;;;5.70;4.00;;;8.50;99.90;;;;;;4897561;29;20197;-85
2021/04/15 09:01:00;;;;;;;10.15;4.18;;;8.30;99.90;;;;;;4849032;29;20225;-83
2021/04/15 09:03:33;;;;;;;4.90;4.35;;;8.10;99.90;;;;;;4898516;29;20185;-82
2021/04/15 09:06:16;;;;;;;7.90;4.50;;;8.00;99.90;;;;;;4898812;29;20197;-83
2021/04/15 09:08:56;;;;;;;8.38;3.45;;;8.10;99.90;;;;;;4898261;29;20193;-83
2021/04/15 09:11:32;;;;;;;6.30;4.63;;;7.80;99.90;;;;;;4887329;29;20201;-83
2021/04/15 09:14:05;;;;;;;5.78;3.88;;;7.60;99.90;;;;;;4896575;29;20193;-84
2021/04/15 09:16:38;;;;;;;6.38;3.15;;;7.80;99.90;;;;;;4898453;29;20197;-84
2021/04/15 09:19:15;;;;;;;7.25;3.55;;;8.00;99.90;;;;;;4902729;29;20204;-85
2021/04/15 09:21:55;;;;;;;7.20;2.65;;;8.00;99.90;;;;;;4904318;29;20257;-85
2021/04/15 09:24:34;;;;;;;4.75;3.13;;;8.20;99.90;;;;;;4899494;29;20194;-85
2021/04/15 09:27:22;;;;;;;6.72;3.80;;;8.40;99.90;;;;;;4900914;29;20674;-86
2021/04/15 09:30:09;;;;;;;9.82;5.03;;;8.50;99.90;;;;;;4898967;29;20546;-86
2021/04/15 09:32:41;;;;;;;5.90;4.43;;;8.80;99.90;;;;;;4897148;29;20197;-85
2021/04/15 09:35:34;;;;;;;9.20;3.47;;;8.90;99.90;;;;;;4898674;29;20185;-84
2021/04/15 09:38:32;;;;;;;4.05;2.88;;;8.60;99.90;;;;;;4898273;29;20189;-85
2021/04/15 09:41:26;;;;;;;3.72;2.63;;;8.60;99.90;;;;;;4898227;29;20299;-84
2021/04/15 09:44:02;;;;;;;10.70;4.00;;;8.80;99.90;;;;;;4897591;29;20198;-85
2021/04/15 09:46:36;;;;;;;5.90;3.45;;;9.10;99.90;;;;;;4890482;29;20181;-83
2021/04/15 09:49:19;;;;;;;4.40;3.17;;;9.40;99.90;;;;;;4898669;29;20665;-84
2021/04/15 09:52:11;;;;;;;14.30;5.07;;;9.50;99.90;;;;;;4881859;29;20276;-83
2021/04/15 09:54:51;;;;;;;5.55;3.13;;;9.60;99.90;;;;;;4890461;29;20248;-84
2021/04/15 09:57:31;;;;;;;5.47;3.25;;;9.70;99.90;;;;;;4898747;29;20194;-84
2021/04/15 10:00:20;;;;;;;6.13;2.90;;;9.80;99.90;;;;;;4897748;29;20240;-84
2021/04/15 10:03:02;;;;;;;4.68;3.78;;;9.80;99.90;;;;;;4883221;29;20201;-84
2021/04/15 10:05:49;;;;;;;5.20;3.35;;;9.50;99.90;;;;;;4895282;29;20273;-84
2021/04/15 10:08:25;;;;;;;7.93;3.03;;;9.30;99.90;;;;;;4898642;29;20273;-84
2021/04/15 10:11:00;;;;;;;5.68;2.90;;;9.00;99.90;;;;;;4879733;29;20222;-84
2021/04/15 10:13:35;;;;;;;3.85;2.85;;;9.10;99.90;;;;;;4896555;29;20249;-85
2021/04/15 10:16:10;;;;;;;6.40;2.17;;;9.10;99.90;;;;;;4898300;29;20192;-86
2021/04/15 10:19:10;;;;;;;4.15;2.55;;;9.20;99.90;;;;;;4893161;29;20246;-85
2021/04/15 10:21:48;;;;;;;5.95;2.70;;;9.40;99.90;;;;;;4873843;29;20221;-85
2021/04/15 10:24:26;;;;;;;5.05;3.05;;;9.50;99.90;;;;;;4912030;29;20193;-85
2021/04/15 10:27:40;;;;;;;4.00;2.95;;;9.10;99.90;;;;;;4903090;29;20196;-85
2021/04/15 10:30:24;;;;;;;4.65;2.63;;;9.20;99.90;;;;;;4862740;29;20195;-85
2021/04/15 10:33:32;;;;;;;5.53;3.90;;;9.30;99.90;;;;;;4901369;29;20200;-85
2021/04/15 10:36:30;;;;;;;6.20;4.05;;;9.40;99.90;;;;;;4904389;29;20205;-86
2021/04/15 10:39:30;;;;;;;4.95;3.35;;;9.40;99.90;;;;;;4919652;29;20198;-85
2021/04/15 10:42:43;;;;;;;6.32;2.97;;;9.60;99.90;;;;;;4886168;29;20713;-84
2021/04/15 10:45:45;;;;;;;4.15;3.28;;;10.00;99.90;;;;;;4910657;29;20207;-84
2021/04/15 10:48:24;;;;;;;7.35;2.90;;;10.60;99.90;;;;;;4914804;29;20193;-83
2021/04/15 10:50:57;;;;;;;7.18;3.85;;;10.90;99.90;;;;;;4913729;29;20240;-84
2021/04/15 10:53:52;;;;;;;6.18;3.85;;;11.00;99.90;;;;;;4913392;29;20189;-83
2021/04/15 10:56:44;;;;;;;3.30;2.65;;;11.00;99.90;;;;;;4874580;29;20187;-83
2021/04/15 10:59:30;;;;;;;8.65;2.85;;;11.20;99.90;;;;;;4912945;29;20249;-83
2021/04/15 11:02:17;;;;;;;4.30;2.60;;;11.10;99.90;;;;;;4912767;29;20204;-84
2021/04/15 11:04:44;;;;;;;5.57;3.50;;;11.20;99.90;;;;;;4911636;29;20213;-83
2021/04/15 11:07:17;;;;;;;4.78;3.35;;;10.90;99.90;;;;;;4913004;29;20194;-83
2021/04/15 11:09:45;;;;;;;4.78;3.42;;;10.70;99.90;;;;;;4911663;29;20634;-84
2021/04/15 11:12:22;;;;;;;6.95;3.78;;;10.60;99.90;;;;;;4912955;29;20214;-84
2021/04/15 11:15:07;;;;;;;5.90;2.72;;;10.40;99.90;;;;;;4918098;29;20267;-83
2021/04/15 11:17:38;;;;;;;4.40;2.72;;;10.40;99.90;;;;;;4921401;29;20229;-84
2021/04/15 11:20:25;;;;;;;4.70;3.33;;;10.50;99.90;;;;;;4915475;29;20213;-84
2021/04/15 11:23:01;;;;;;;3.70;3.00;;;10.60;99.90;;;;;;4911517;29;20201;-84
2021/04/15 11:25:30;;;;;;;5.03;3.78;;;10.60;99.90;;;;;;4910999;29;20193;-84
2021/04/15 11:27:57;;;;;;;4.68;3.33;;;10.60;99.90;;;;;;4912164;29;20193;-84
2021/04/15 11:30:39;;;;;;;9.15;3.58;;;10.60;99.90;;;;;;4910340;29;20194;-84
2021/04/15 11:33:09;;;;;;;6.00;3.20;;;10.60;99.90;;;;;;4910511;29;20254;-84
2021/04/15 11:35:35;;;;;;;5.68;3.30;;;10.50;99.90;;;;;;4911438;29;20200;-84
2021/04/15 11:38:18;;;;;;;5.28;3.67;;;10.70;99.90;;;;;;4910229;29;20189;-83
2021/04/15 11:40:47;;;;;;;6.97;4.93;;;11.00;99.90;;;;;;4910633;29;20292;-84
2021/04/15 11:43:29;;;;;;;4.72;3.85;;;11.80;99.90;;;;;;4911157;29;20221;-84
2021/04/15 11:46:10;;;;;;;4.10;3.30;;;13.30;99.90;;;;;;4909354;29;20185;-84
2021/04/15 11:48:38;;;;;;;5.38;3.90;;;14.70;99.90;;;;;;4904927;29;20230;-85
2021/04/15 11:51:14;;;;;;;8.02;4.07;;;15.80;99.90;;;;;;4899884;29;20204;-84
2021/04/15 11:53:47;;;;;;;5.13;3.83;;;16.60;99.90;;;;;;4910229;29;20208;-84
2021/04/15 11:56:25;;;;;;;5.28;3.95;;;17.10;99.90;;;;;;4914030;29;20280;-83
2021/04/15 11:58:53;;;;;;;4.20;3.30;;;17.40;99.90;;;;;;4908081;29;20229;-84
2021/04/15 12:01:27;;;;;;;7.32;4.22;;;17.70;99.90;;;;;;4898317;29;20250;-84
2021/04/15 12:03:58;;;;;;;5.90;4.70;;;18.10;99.90;;;;;;4913800;29;20257;-84
2021/04/15 12:06:28;;;;;;;5.07;4.40;;;18.40;99.90;;;;;;4912529;29;20213;-85
2021/04/15 12:08:56;;;;;;;7.88;4.70;;;17.90;99.90;;;;;;4906943;29;20268;-85
2021/04/15 12:11:26;;;;;;;7.35;4.85;;;17.30;99.90;;;;;;4900313;29;20209;-84
2021/04/15 12:13:58;;;;;;;5.10;4.60;;;16.50;99.90;;;;;;4899337;29;20193;-84
2021/04/15 12:16:30;;;;;;;7.20;4.68;;;15.90;99.90;;;;;;4899374;29;20197;-83
2021/04/15 12:19:05;;;;;;;8.95;5.28;;;15.10;99.90;;;;;;4898484;29;20192;-84
2021/04/15 12:21:37;;;;;;;7.22;4.68;;;13.90;99.90;;;;;;4899787;29;20216;-84
2021/04/15 12:24:08;;;;;;;5.97;4.25;;;13.30;99.90;;;;;;4898932;29;20190;-82
2021/04/15 12:26:43;;;;;;;11.25;4.63;;;13.70;99.90;;;;;;4901702;29;20192;-83
2021/04/15 12:29:14;;;;;;;8.63;5.13;;;14.50;99.90;;;;;;4901865;29;20200;-83
2021/04/15 12:31:44;;;;;;;6.82;5.00;;;15.10;99.90;;;;;;4900388;29;20197;-84
2021/04/15 12:34:32;;;;;;;6.22;5.20;;;15.70;99.90;;;;;;4898800;29;20628;-84
2021/04/15 12:37:05;;;;;;;8.20;4.72;;;17.00;99.90;;;;;;4899931;29;20280;-84
2021/04/15 12:39:43;;;;;;;5.35;4.85;;;17.50;99.90;;;;;;4900488;29;20205;-85
2021/04/15 12:42:10;;;;;;;6.00;4.57;;;17.30;99.90;;;;;;4900557;29;20264;-84
2021/04/15 12:44:37;;;;;;;9.43;6.18;;;16.60;99.90;;;;;;4905941;29;20221;-84
2021/04/15 12:47:04;;;;;;;9.23;4.90;;;16.00;99.90;;;;;;4899466;29;20204;-85
2021/04/15 12:49:35;;;;;;;6.20;4.82;;;15.30;99.90;;;;;;4899959;29;20673;-85
2021/04/15 12:52:07;;;;;;;6.50;5.80;;;14.20;99.90;;;;;;4899309;29;20236;-85
2021/04/15 12:54:36;;;;;;;5.22;4.50;;;13.40;99.90;;;;;;4898454;29;20310;-82
2021/04/15 12:57:05;;;;;;;6.63;4.90;;;13.20;99.90;;;;;;4899669;29;20220;-85
2021/04/15 12:59:34;;;;;;;5.47;4.75;;;13.60;99.90;;;;;;4899063;29;20240;-85
2021/04/15 13:02:02;;;;;;;8.73;4.70;;;14.80;99.90;;;;;;4899568;29;20225;-85
2021/04/15 13:04:43;;;;;;;5.88;4.63;;;15.70;99.90;;;;;;4899349;29;20192;-84
2021/04/15 13:07:13;;;;;;;7.00;4.15;;;16.90;99.70;;;;;;4899436;29;20209;-88
2021/04/15 13:09:42;;;;;;;5.90;3.90;;;17.20;97.90;;;;;;4898391;29;20217;-84
2021/04/15 13:12:39;;;;;;;7.18;4.28;;;16.90;98.70;;;;;;4900281;29;20213;-85
2021/04/15 13:15:09;;;;;;;10.25;4.53;;;16.20;98.60;;;;;;4865857;29;20235;-84
2021/04/15 13:17:48;;;;;;;4.85;4.22;;;15.60;99.20;;;;;;4900561;29;20185;-84
2021/04/15 13:20:39;;;;;;;8.25;4.65;;;14.20;99.90;;;;;;4909739;29;20684;-84
2021/04/15 13:23:20;;;;;;;5.75;4.05;;;13.40;99.90;;;;;;4908627;29;20653;-84
2021/04/15 13:26:23;;;;;;;6.55;5.30;;;13.00;99.90;;;;;;4903215;29;20291;-84
2021/04/15 13:29:24;;;;;;;7.22;5.35;;;12.80;99.90;;;;;;4900563;29;20192;-85